createdAt,value
2023-02-06T00:00:00.592Z,15.07
2023-02-06T00:02:28.332Z,21.13
2023-02-06T00:04:56.022Z,17.88
2023-02-06T00:07:23.747Z,21.48
2023-02-06T00:09:52.762Z,18.15
2023-02-06T00:12:20.451Z,12.73
2023-02-06T00:14:48.096Z,19.20
2023-02-06T00:17:15.820Z,12.63
2023-02-06T00:19:44.634Z,13.90
2023-02-06T00:22:13.560Z,21.00
2023-02-06T00:24:41.782Z,29.88
2023-02-06T00:27:10.916Z,19.23
2023-02-06T00:29:38.606Z,27.05
2023-02-06T00:32:06.700Z,20.95
2023-02-06T00:34:34.348Z,11.23
2023-02-06T00:37:02.029Z,9.80
2023-02-06T00:39:29.881Z,18.38
2023-02-06T00:41:57.565Z,31.58
2023-02-06T00:44:26.736Z,12.52
2023-02-06T00:46:54.439Z,18.40
2023-02-06T00:49:22.127Z,12.32
2023-02-06T00:51:50.073Z,16.80
2023-02-06T00:54:17.744Z,16.92
2023-02-06T00:56:45.362Z,12.38
2023-02-06T00:59:13.157Z,11.80
2023-02-06T01:01:42.214Z,9.45
2023-02-06T01:04:09.916Z,18.75
2023-02-06T01:06:37.587Z,13.45
2023-02-06T01:09:05.547Z,9.60
2023-02-06T01:11:33.240Z,19.33
2023-02-06T01:14:02.120Z,22.52
2023-02-06T01:16:29.864Z,25.25
2023-02-06T01:18:58.887Z,5.15
2023-02-06T01:21:26.779Z,14.10
2023-02-06T01:23:54.909Z,16.67
2023-02-06T01:26:24.183Z,21.17
2023-02-06T01:28:51.849Z,14.55
2023-02-06T01:31:21.075Z,17.65
2023-02-06T01:33:49.534Z,23.80
2023-02-06T01:36:19.341Z,12.73
2023-02-06T01:38:47.019Z,21.92
2023-02-06T01:41:15.522Z,21.50
2023-02-06T01:43:44.909Z,10.90
2023-02-06T01:46:12.772Z,11.50
2023-02-06T01:48:42.274Z,20.63
2023-02-06T01:51:13.619Z,20.38
2023-02-06T01:53:45.509Z,13.35
2023-02-06T01:56:13.669Z,9.27
2023-02-06T01:58:43.125Z,18.70
2023-02-06T02:01:11.990Z,17.60
2023-02-06T02:03:42.436Z,13.57
2023-02-06T02:06:11.610Z,24.00
2023-02-06T02:08:40.510Z,19.45
2023-02-06T02:11:11.942Z,20.48
2023-02-06T02:13:40.062Z,18.40
2023-02-06T02:16:12.731Z,25.83
2023-02-06T02:18:56.836Z,16.23
2023-02-06T02:21:42.091Z,25.42
2023-02-06T02:24:11.299Z,10.55
2023-02-06T02:26:52.210Z,15.82
2023-02-06T02:29:43.645Z,15.35
2023-02-06T02:32:21.027Z,18.83
2023-02-06T02:35:07.554Z,24.60
2023-02-06T02:37:43.143Z,16.13
2023-02-06T02:40:17.344Z,11.98
2023-02-06T02:42:50.320Z,17.85
2023-02-06T02:45:20.492Z,13.13
2023-02-06T02:47:50.752Z,17.83
2023-02-06T02:50:19.419Z,9.02
2023-02-06T02:52:48.479Z,21.17
2023-02-06T02:55:17.512Z,15.15
2023-02-06T02:57:47.602Z,14.43
2023-02-06T03:00:17.704Z,17.45
2023-02-06T03:02:46.960Z,15.57
2023-02-06T03:05:16.375Z,26.10
2023-02-06T03:07:48.019Z,18.55
2023-02-06T03:10:21.875Z,6.72
2023-02-06T03:12:51.530Z,15.43
2023-02-06T03:15:23.513Z,16.70
2023-02-06T03:17:53.992Z,10.02
2023-02-06T03:20:22.060Z,12.55
2023-02-06T03:22:51.740Z,14.57
2023-02-06T03:25:25.271Z,21.45
2023-02-06T03:27:54.290Z,11.82
2023-02-06T03:30:23.153Z,18.25
2023-02-06T03:32:55.451Z,16.23
2023-02-06T03:35:25.851Z,15.73
2023-02-06T03:37:53.962Z,14.48
2023-02-06T03:40:23.284Z,14.55
2023-02-06T03:42:52.880Z,19.50
2023-02-06T03:45:24.276Z,11.60
2023-02-06T03:47:53.010Z,12.15
2023-02-06T03:50:20.832Z,11.25
2023-02-06T03:52:50.059Z,18.75
2023-02-06T03:55:19.602Z,11.45
2023-02-06T03:57:50.309Z,13.65
2023-02-06T04:00:18.014Z,14.60
2023-02-06T04:02:47.509Z,7.93
2023-02-06T04:05:15.954Z,12.70
2023-02-06T04:07:43.784Z,22.70
2023-02-06T04:10:11.520Z,13.40
2023-02-06T04:12:39.403Z,24.70
2023-02-06T04:15:09.050Z,11.60
2023-02-06T04:17:53.507Z,19.48
2023-02-06T04:20:25.632Z,15.45
2023-02-06T04:22:53.362Z,10.88
2023-02-06T04:25:21.043Z,9.52
2023-02-06T04:27:48.751Z,14.98
2023-02-06T04:30:18.441Z,12.75
2023-02-06T04:32:46.506Z,12.00
2023-02-06T04:35:14.182Z,16.25
2023-02-06T04:37:41.858Z,30.13
2023-02-06T04:40:10.010Z,16.85
2023-02-06T04:42:37.873Z,10.93
2023-02-06T04:45:05.714Z,9.57
2023-02-06T04:47:34.735Z,18.42
2023-02-06T04:50:02.415Z,15.73
2023-02-06T04:52:30.094Z,13.38
2023-02-06T04:54:57.893Z,16.38
2023-02-06T04:57:26.795Z,11.52
2023-02-06T04:59:54.502Z,18.17
2023-02-06T05:02:22.236Z,13.38
2023-02-06T05:04:51.269Z,19.13
2023-02-06T05:07:18.971Z,15.70
2023-02-06T05:09:46.835Z,18.08
2023-02-06T05:12:14.678Z,12.27
2023-02-06T05:14:42.627Z,20.27
2023-02-06T05:17:10.468Z,20.25
2023-02-06T05:19:38.219Z,15.82
2023-02-06T05:22:07.214Z,12.70
2023-02-06T05:24:34.939Z,17.25
2023-02-06T05:27:02.572Z,28.27
2023-02-06T05:29:30.326Z,21.38
2023-02-06T05:31:57.978Z,18.35
2023-02-06T05:34:25.771Z,16.45
2023-02-06T05:36:53.478Z,17.35
2023-02-06T05:39:22.575Z,14.85
2023-02-06T05:41:50.318Z,17.35
2023-02-06T05:44:18.104Z,16.13
2023-02-06T05:46:48.417Z,17.13
2023-02-06T05:49:16.310Z,25.58
2023-02-06T05:51:44.045Z,23.70
2023-02-06T05:54:12.580Z,19.83
2023-02-06T05:56:41.577Z,18.38
2023-02-06T05:59:11.717Z,15.82
2023-02-06T06:01:39.416Z,27.73
2023-02-06T06:04:07.530Z,12.60
2023-02-06T06:06:35.288Z,14.82
2023-02-06T06:09:03.004Z,23.80
2023-02-06T06:11:30.758Z,22.88
2023-02-06T06:13:59.775Z,32.13
2023-02-06T06:16:27.772Z,24.80
2023-02-06T06:18:55.842Z,39.08
2023-02-06T06:21:23.717Z,54.80
2023-02-06T06:23:51.404Z,44.20
2023-02-06T06:26:19.053Z,18.90
2023-02-06T06:28:46.937Z,20.23
2023-02-06T06:31:16.192Z,52.92
2023-02-06T06:33:45.007Z,43.95
2023-02-06T06:36:14.463Z,49.92
2023-02-06T06:38:42.658Z,29.90
2023-02-06T06:41:11.723Z,29.02
2023-02-06T06:43:39.459Z,53.83
2023-02-06T06:46:07.341Z,17.10
2023-02-06T06:48:38.298Z,39.75
2023-02-06T06:51:07.592Z,29.40
2023-02-06T06:53:39.970Z,22.52
2023-02-06T06:56:08.740Z,25.08
2023-02-06T06:58:36.413Z,47.42
2023-02-06T07:01:11.792Z,15.60
2023-02-06T07:06:08.489Z,24.30
2023-02-06T07:08:41.803Z,60.33
2023-02-06T07:11:09.806Z,36.35
2023-02-06T07:13:37.614Z,38.80
2023-02-06T07:16:05.504Z,36.30
2023-02-06T07:18:33.775Z,22.67
2023-02-06T07:21:01.552Z,41.65
2023-02-06T07:23:30.606Z,41.67
2023-02-06T07:26:02.313Z,19.13
2023-02-06T07:28:30.089Z,31.20
2023-02-06T07:31:04.500Z,26.63
2023-02-06T07:33:32.604Z,29.08
2023-02-06T07:36:02.593Z,33.90
2023-02-06T07:38:32.701Z,15.52
2023-02-06T07:41:02.024Z,15.75
2023-02-06T07:43:29.755Z,21.88
2023-02-06T07:45:59.435Z,31.65
2023-02-06T07:48:27.272Z,19.02
2023-02-06T07:50:55.075Z,14.52
2023-02-06T07:53:24.087Z,18.05
2023-02-06T07:55:53.132Z,30.42
2023-02-06T07:58:20.754Z,37.78
2023-02-06T08:00:48.584Z,35.08
2023-02-06T08:03:16.276Z,20.48
2023-02-06T08:05:46.737Z,71.00
2023-02-06T08:08:14.681Z,34.25
2023-02-06T08:10:42.391Z,58.55
2023-02-06T08:13:11.464Z,61.97
2023-02-06T08:15:39.178Z,48.47
2023-02-06T08:18:06.958Z,46.35
2023-02-06T08:20:34.622Z,17.25
2023-02-06T08:23:02.304Z,28.98
2023-02-06T08:25:29.965Z,28.73
2023-02-06T08:27:57.763Z,20.05
2023-02-06T08:30:26.823Z,22.23
2023-02-06T08:32:57.135Z,20.20
2023-02-06T08:35:24.775Z,59.50
2023-02-06T08:37:52.476Z,42.78
2023-02-06T08:40:21.328Z,53.80
2023-02-06T08:42:50.958Z,25.73
2023-02-06T08:45:18.967Z,48.08
2023-02-06T08:47:47.967Z,57.65
2023-02-06T08:50:16.402Z,70.35
2023-02-06T08:52:44.040Z,55.83
2023-02-06T08:55:12.051Z,97.78
2023-02-06T08:57:39.732Z,49.72
2023-02-06T09:00:08.148Z,77.88
2023-02-06T09:02:36.055Z,20.83
2023-02-06T09:05:05.681Z,40.38
2023-02-06T09:07:33.386Z,69.88
2023-02-06T09:10:01.112Z,53.00
2023-02-06T09:12:28.937Z,73.10
2023-02-06T09:14:56.708Z,39.90
2023-02-06T09:17:24.371Z,60.50
2023-02-06T09:19:52.062Z,39.45
2023-02-06T09:22:21.250Z,19.52
2023-02-06T09:24:48.994Z,43.10
2023-02-06T09:27:16.694Z,26.23
2023-02-06T09:29:44.401Z,31.98
2023-02-06T09:32:12.070Z,43.00
2023-02-06T09:34:39.806Z,41.65
2023-02-06T09:37:07.585Z,20.20
2023-02-06T09:39:36.671Z,28.85
2023-02-06T09:42:07.742Z,22.15
2023-02-06T09:44:36.856Z,21.85
2023-02-06T09:47:12.174Z,19.85
2023-02-06T09:49:41.690Z,24.35
2023-02-06T09:52:27.235Z,23.48
2023-02-06T09:55:00.375Z,23.42
2023-02-06T09:57:32.154Z,23.05
2023-02-06T10:00:01.354Z,23.70
2023-02-06T10:02:39.714Z,25.45
2023-02-06T10:05:13.324Z,27.27
2023-02-06T10:07:51.088Z,27.45
2023-02-06T10:10:21.727Z,33.90
2023-02-06T10:12:55.307Z,32.53
2023-02-06T10:15:26.816Z,25.38
2023-02-06T10:17:57.884Z,33.53
2023-02-06T10:20:29.528Z,29.10
2023-02-06T10:23:03.516Z,26.38
2023-02-06T10:25:34.539Z,44.30
2023-02-06T10:28:03.315Z,30.80
2023-02-06T10:30:40.457Z,42.47
2023-02-06T10:33:25.327Z,34.03
2023-02-06T10:35:57.643Z,34.13
2023-02-06T10:38:33.776Z,36.65
2023-02-06T10:41:04.789Z,37.08
2023-02-06T10:43:36.756Z,37.10
2023-02-06T10:46:09.856Z,29.00
2023-02-06T10:48:41.108Z,30.00
2023-02-06T10:51:13.888Z,38.08
2023-02-06T10:53:44.915Z,40.53
2023-02-06T10:56:15.544Z,35.78
2023-02-06T10:58:47.297Z,32.85
2023-02-06T11:01:25.566Z,51.78
2023-02-06T11:03:57.223Z,40.05
2023-02-06T11:06:26.246Z,43.88
2023-02-06T11:08:54.028Z,37.45
2023-02-06T11:11:24.262Z,36.60
2023-02-06T11:13:54.238Z,40.35
2023-02-06T11:16:24.020Z,41.58
2023-02-06T11:18:52.388Z,39.05
2023-02-06T11:21:34.915Z,37.78
2023-02-06T11:24:09.219Z,38.53
2023-02-06T11:26:45.110Z,38.05
2023-02-06T11:29:15.778Z,39.75
2023-02-06T11:31:44.557Z,36.03
2023-02-06T11:34:22.166Z,43.20
2023-02-06T11:36:53.089Z,37.40
2023-02-06T11:39:25.419Z,35.20
2023-02-06T11:41:59.133Z,33.50
2023-02-06T11:44:27.022Z,32.67
2023-02-06T11:46:54.778Z,27.48
2023-02-06T11:49:24.913Z,42.00
2023-02-06T11:51:53.965Z,41.30
2023-02-06T11:54:28.008Z,41.25
2023-02-06T11:57:03.185Z,35.90
2023-02-06T11:59:33.921Z,38.38
2023-02-06T12:02:05.852Z,34.65
2023-02-06T12:04:35.829Z,46.97
2023-02-06T12:07:07.972Z,35.90
2023-02-06T12:09:35.739Z,38.85
2023-02-06T12:12:07.178Z,36.10
2023-02-06T12:14:38.374Z,38.55
2023-02-06T12:17:10.886Z,37.90
2023-02-06T12:19:45.525Z,34.97
2023-02-06T12:22:17.038Z,35.92
2023-02-06T12:24:46.350Z,37.67
2023-02-06T12:27:17.939Z,37.80
2023-02-06T12:29:47.438Z,43.63
2023-02-06T12:32:18.964Z,41.80
2023-02-06T12:34:53.692Z,35.80
2023-02-06T12:37:26.370Z,37.58
2023-02-06T12:39:54.061Z,35.83
2023-02-06T12:42:33.742Z,30.30
2023-02-06T12:45:03.478Z,43.40
2023-02-06T12:47:33.253Z,41.88
2023-02-06T12:50:03.328Z,30.98
2023-02-06T12:52:35.190Z,38.00
2023-02-06T12:55:07.402Z,34.53
2023-02-06T12:57:37.226Z,32.42
2023-02-06T13:00:40.526Z,32.22
2023-02-06T13:03:22.408Z,19.83
2023-02-06T13:05:52.570Z,27.95
2023-02-06T13:08:21.826Z,20.70
2023-02-06T13:10:51.376Z,33.97
2023-02-06T13:13:28.857Z,22.83
2023-02-06T13:15:57.724Z,30.65
2023-02-06T13:18:58.527Z,28.00
2023-02-06T13:21:28.857Z,21.35
2023-02-06T13:24:11.383Z,26.58
2023-02-06T13:26:57.706Z,29.70
2023-02-06T13:29:27.339Z,26.48
2023-02-06T13:32:09.826Z,30.35
2023-02-06T13:34:38.059Z,26.35
2023-02-06T13:37:20.754Z,25.08
2023-02-06T13:39:49.439Z,31.08
2023-02-06T13:42:33.006Z,20.98
2023-02-06T13:45:04.598Z,27.33
2023-02-06T13:47:45.979Z,36.80
2023-02-06T13:50:24.539Z,26.08
2023-02-06T13:52:59.562Z,21.80
2023-02-06T13:55:35.729Z,25.77
2023-02-06T13:58:14.563Z,21.60
2023-02-06T14:00:44.876Z,24.50
2023-02-06T14:03:14.801Z,22.35
2023-02-06T14:05:56.723Z,18.38
2023-02-06T14:08:28.982Z,24.00
2023-02-06T14:11:10.574Z,23.27
2023-02-06T14:13:44.419Z,24.05
2023-02-06T14:16:21.646Z,22.10
2023-02-06T14:18:52.416Z,30.52
2023-02-06T14:21:26.165Z,18.40
2023-02-06T14:24:03.106Z,17.17
2023-02-06T14:26:34.869Z,17.25
2023-02-06T14:29:08.302Z,21.45
2023-02-06T14:31:46.683Z,23.42
2023-02-06T14:34:32.889Z,24.75
2023-02-06T14:37:08.289Z,17.88
2023-02-06T14:42:07.389Z,20.02
2023-02-06T14:44:35.764Z,16.50
2023-02-06T14:47:04.817Z,17.58
2023-02-06T14:49:33.762Z,12.88
2023-02-06T14:52:02.430Z,16.27
2023-02-06T14:54:31.522Z,18.80
2023-02-06T14:57:00.055Z,16.30
2023-02-06T14:59:27.776Z,16.20
2023-02-06T15:01:56.312Z,17.80
2023-02-06T15:04:27.148Z,17.13
2023-02-06T15:06:57.329Z,25.88
2023-02-06T15:09:29.720Z,24.90
2023-02-06T15:11:58.362Z,21.13
2023-02-06T15:14:28.582Z,17.48
2023-02-06T15:16:59.806Z,19.67
2023-02-06T15:19:30.988Z,23.95
2023-02-06T15:22:00.681Z,29.45
2023-02-06T15:24:47.490Z,22.55
2023-02-06T15:27:19.518Z,17.67
2023-02-06T15:29:49.032Z,14.55
2023-02-06T15:32:21.448Z,20.35
2023-02-06T15:34:50.564Z,15.20
2023-02-06T15:37:22.688Z,15.30
2023-02-06T15:39:51.356Z,24.58
2023-02-06T15:42:20.322Z,22.08
2023-02-06T15:44:48.738Z,18.70
2023-02-06T15:47:17.889Z,14.20
2023-02-06T15:49:46.709Z,18.30
2023-02-06T15:52:32.539Z,17.75
2023-02-06T15:57:30.304Z,16.98
2023-02-06T15:59:58.084Z,11.15
2023-02-06T16:02:29.428Z,20.38
2023-02-06T16:04:57.258Z,20.75
2023-02-06T16:07:27.510Z,10.75
2023-02-06T16:09:56.586Z,12.35
2023-02-06T16:12:24.527Z,9.55
2023-02-06T16:14:54.666Z,19.70
2023-02-06T16:17:29.318Z,15.00
2023-02-06T16:19:59.975Z,20.33
2023-02-06T16:22:30.991Z,18.35
2023-02-06T16:25:14.110Z,8.88
2023-02-06T16:27:44.092Z,18.80
2023-02-06T16:30:20.574Z,10.90
2023-02-06T16:32:48.537Z,12.77
2023-02-06T16:35:16.273Z,20.15
2023-02-06T16:37:45.423Z,15.95
2023-02-06T16:40:13.252Z,12.20
2023-02-06T16:42:42.489Z,9.70
2023-02-06T16:45:16.782Z,10.52
2023-02-06T16:47:44.715Z,8.63
2023-02-06T16:50:12.495Z,18.35
2023-02-06T16:52:41.223Z,14.35
2023-02-06T16:55:15.628Z,15.80
2023-02-06T16:57:45.004Z,15.00
2023-02-06T17:00:17.693Z,15.95
2023-02-06T17:02:46.087Z,16.15
2023-02-06T17:05:14.016Z,14.30
2023-02-06T17:07:41.931Z,17.38
2023-02-06T17:10:10.127Z,20.00
2023-02-06T17:12:39.265Z,21.88
2023-02-06T17:15:13.050Z,14.30
2023-02-06T17:17:40.827Z,13.85
2023-02-06T17:20:16.229Z,14.05
2023-02-06T17:25:11.434Z,11.65
2023-02-06T17:27:41.169Z,11.88
2023-02-06T17:30:13.160Z,18.52
2023-02-06T17:32:41.311Z,16.38
2023-02-06T17:35:09.305Z,11.90
2023-02-06T17:37:37.827Z,24.13
2023-02-06T17:40:05.874Z,21.10
2023-02-06T17:42:34.208Z,25.60
2023-02-06T17:45:03.272Z,13.68
2023-02-06T17:47:31.035Z,13.57
2023-02-06T17:49:58.784Z,15.57
2023-02-06T17:52:26.471Z,11.68
2023-02-06T17:54:54.778Z,14.52
2023-02-06T17:57:22.634Z,14.38
2023-02-06T17:59:52.911Z,20.83
2023-02-06T18:02:22.072Z,16.05
2023-02-06T18:04:52.960Z,14.85
2023-02-06T18:07:20.654Z,20.23
2023-02-06T18:09:48.326Z,13.30
2023-02-06T18:12:16.465Z,17.27
2023-02-06T18:14:44.212Z,14.88
2023-02-06T18:17:12.178Z,14.82
2023-02-06T18:19:42.705Z,22.95
2023-02-06T18:22:16.183Z,14.40
2023-02-06T18:24:44.246Z,16.25
2023-02-06T18:27:12.292Z,19.30
2023-02-06T18:29:49.491Z,21.25
2023-02-06T18:32:18.205Z,22.25
2023-02-06T18:34:47.480Z,18.98
2023-02-06T18:37:15.218Z,27.48
2023-02-06T18:39:43.013Z,21.00
2023-02-06T18:42:28.357Z,19.73
2023-02-06T18:44:56.028Z,15.15
2023-02-06T18:47:23.753Z,18.48
2023-02-06T18:49:52.931Z,20.27
2023-02-06T18:52:20.809Z,18.17
2023-02-06T18:54:48.844Z,37.47
2023-02-06T18:57:16.525Z,25.75
2023-02-06T18:59:44.215Z,20.52
2023-02-06T19:02:14.484Z,17.52
2023-02-06T19:04:42.419Z,13.43
2023-02-06T19:07:11.731Z,14.20
2023-02-06T19:09:39.577Z,13.80
2023-02-06T19:12:07.986Z,16.60
2023-02-06T19:14:35.856Z,31.45
2023-02-06T19:17:04.234Z,12.55
2023-02-06T19:19:31.955Z,13.50
2023-02-06T19:21:59.792Z,13.48
2023-02-06T19:24:30.700Z,12.82
2023-02-06T19:26:58.615Z,14.70
2023-02-06T19:29:35.131Z,12.23
2023-02-06T19:32:04.879Z,15.57
2023-02-06T19:34:36.307Z,10.82
2023-02-06T19:37:04.326Z,18.08
2023-02-06T19:39:34.416Z,16.25
2023-02-06T19:42:02.134Z,16.23
2023-02-06T19:44:29.810Z,13.57
2023-02-06T19:46:57.592Z,20.17
2023-02-06T19:49:25.447Z,23.58
2023-02-06T19:51:53.465Z,21.58
2023-02-06T19:54:21.480Z,22.85
2023-02-06T19:56:50.512Z,24.80
2023-02-06T19:59:19.092Z,29.15
2023-02-06T20:01:47.250Z,16.80
2023-02-06T20:04:15.336Z,17.88
2023-02-06T20:06:44.086Z,16.70
2023-02-06T20:09:12.765Z,25.17
2023-02-06T20:11:50.786Z,16.48
2023-02-06T20:14:20.155Z,30.15
2023-02-06T20:16:49.044Z,22.15
2023-02-06T20:19:18.694Z,19.45
2023-02-06T20:21:48.081Z,25.95
2023-02-06T20:24:18.509Z,23.27
2023-02-06T20:26:46.283Z,25.00
2023-02-06T20:29:19.155Z,30.38
2023-02-06T20:31:48.308Z,26.45
2023-02-06T20:34:16.594Z,24.50
2023-02-06T20:36:44.547Z,23.42
2023-02-06T20:39:12.612Z,26.77
2023-02-06T20:41:40.347Z,27.55
2023-02-06T20:44:08.361Z,19.90
2023-02-06T20:46:37.068Z,27.33
2023-02-06T20:49:09.187Z,28.20
2023-02-06T20:51:37.182Z,19.75
2023-02-06T20:54:05.226Z,25.33
2023-02-06T20:56:32.926Z,28.65
2023-02-06T20:59:01.108Z,26.15
2023-02-06T21:01:29.735Z,20.75
2023-02-06T21:04:00.298Z,24.13
2023-02-06T21:06:30.351Z,18.00
2023-02-06T21:09:00.268Z,19.13
2023-02-06T21:11:29.683Z,22.10
2023-02-06T21:14:01.563Z,25.48
2023-02-06T21:16:30.155Z,18.05
2023-02-06T21:18:58.795Z,18.48
2023-02-06T21:21:26.724Z,17.35
2023-02-06T21:23:57.103Z,13.65
2023-02-06T21:26:24.979Z,18.60
2023-02-06T21:28:53.049Z,18.52
2023-02-06T21:31:21.830Z,19.08
2023-02-06T21:33:50.209Z,16.95
2023-02-06T21:36:17.998Z,15.07
2023-02-06T21:38:45.787Z,21.13
2023-02-06T21:41:15.735Z,14.32
2023-02-06T21:43:43.661Z,17.90
2023-02-06T21:46:13.010Z,13.70
2023-02-06T21:48:41.351Z,17.92
2023-02-06T21:51:09.750Z,16.65
2023-02-06T21:53:38.833Z,14.18
2023-02-06T21:56:07.232Z,17.40
2023-02-06T21:58:36.829Z,16.00
2023-02-06T22:01:08.832Z,19.77
2023-02-06T22:03:36.916Z,15.23
2023-02-06T22:06:08.662Z,13.90
2023-02-06T22:08:36.528Z,12.95
2023-02-06T22:11:11.239Z,12.63
2023-02-06T22:13:40.794Z,13.20
2023-02-06T22:16:09.220Z,17.55
2023-02-06T22:18:37.815Z,13.68
2023-02-06T22:21:06.743Z,10.73
2023-02-06T22:23:34.814Z,13.85
2023-02-06T22:26:02.798Z,15.38
2023-02-06T22:28:30.686Z,14.93
2023-02-06T22:31:06.496Z,15.77
2023-02-06T22:33:35.309Z,14.70
2023-02-06T22:36:04.870Z,17.95
2023-02-06T22:38:32.688Z,14.02
2023-02-06T22:41:01.637Z,18.13
2023-02-06T22:43:29.633Z,14.93
2023-02-06T22:45:57.368Z,17.85
2023-02-06T22:48:26.606Z,15.60
2023-02-06T22:50:54.460Z,21.10
2023-02-06T22:53:34.298Z,14.65
2023-02-06T22:56:21.429Z,15.90
2023-02-06T22:58:49.609Z,19.42
2023-02-06T23:01:18.343Z,15.15
2023-02-06T23:03:47.718Z,13.05
2023-02-06T23:06:16.120Z,16.08
2023-02-06T23:08:44.345Z,21.30
2023-02-06T23:11:12.465Z,15.27
2023-02-06T23:13:41.026Z,14.50
2023-02-06T23:16:09.468Z,12.93
2023-02-06T23:18:37.242Z,17.85
2023-02-06T23:21:07.148Z,20.63
2023-02-06T23:23:34.841Z,32.08
2023-02-06T23:26:02.679Z,18.77
2023-02-06T23:28:30.483Z,24.20
2023-02-06T23:30:58.189Z,16.60
2023-02-06T23:33:26.203Z,17.58
2023-02-06T23:35:53.908Z,17.52
2023-02-06T23:38:23.226Z,17.95
2023-02-06T23:40:50.908Z,22.10
2023-02-06T23:43:18.582Z,20.88
2023-02-06T23:45:46.352Z,24.88
2023-02-06T23:48:14.047Z,17.67
2023-02-06T23:50:42.127Z,20.17
2023-02-06T23:53:10.051Z,24.13
2023-02-06T23:55:41.238Z,21.48
2023-02-06T23:58:08.921Z,22.15
